Time;durP1;ratioP1;P1;durP2;ratioP2;P2;SDS_P1;SDS_P2;PMS_P1;PMS_P2;Temp;Humidity;BMP_temperature;BMP_pressure;BME280_temperature;BME280_humidity;BME280_pressure;Samples;Min_cycle;Max_cycle;Signal;HPM_P1;HPM_P2
2021/11/27 00:02:06;;;;;;;5.20;2.85;;;2.80;99.90;;;;;;5092949;28;20073;-65
2021/11/27 00:04:32;;;;;;;4.28;2.55;;;2.90;99.90;;;;;;5093710;28;20020;-65
2021/11/27 00:06:58;;;;;;;4.53;2.95;;;3.00;99.90;;;;;;5092446;28;20035;-65
2021/11/27 00:09:24;;;;;;;6.85;3.35;;;2.90;99.90;;;;;;5093502;28;20047;-65
2021/11/27 00:11:50;;;;;;;4.40;2.80;;;3.00;99.90;;;;;;5092820;28;20031;-66
2021/11/27 00:14:15;;;;;;;4.10;3.00;;;3.00;99.90;;;;;;5093539;28;20103;-66
2021/11/27 00:16:41;;;;;;;4.95;2.42;;;3.00;99.90;;;;;;5093085;28;21368;-64
2021/11/27 00:19:11;;;;;;;6.40;3.45;;;3.00;99.90;;;;;;5089786;28;20020;-64
2021/11/27 00:21:39;;;;;;;5.03;2.65;;;3.00;99.90;;;;;;5093066;28;20035;-64
2021/11/27 00:24:05;;;;;;;4.43;2.72;;;3.00;99.90;;;;;;5091301;28;20077;-65
2021/11/27 00:26:31;;;;;;;4.88;2.95;;;3.00;99.90;;;;;;5093325;28;20028;-66
2021/11/27 00:28:56;;;;;;;6.25;2.85;;;2.90;99.90;;;;;;5092241;28;20028;-66
2021/11/27 00:31:27;;;;;;;5.78;2.40;;;2.90;99.90;;;;;;5093112;28;20028;-66
2021/11/27 00:33:53;;;;;;;;;;;2.80;99.90;;;;;;5093172;28;20106;-66
2021/11/27 00:36:19;;;;;;;6.45;2.80;;;2.80;99.90;;;;;;5092871;28;19981;-66
2021/11/27 00:38:45;;;;;;;3.97;2.97;;;2.80;99.90;;;;;;5092828;28;20077;-66
2021/11/27 00:41:11;;;;;;;4.28;2.63;;;2.70;99.90;;;;;;5092640;28;20027;-66
2021/11/27 00:43:38;;;;;;;4.68;2.60;;;2.70;99.90;;;;;;5092510;28;20425;-66
2021/11/27 00:46:04;;;;;;;4.03;2.47;;;2.70;99.90;;;;;;5091942;28;20495;-66
2021/11/27 00:48:30;;;;;;;5.10;2.85;;;2.70;99.90;;;;;;5092703;28;20075;-66
2021/11/27 00:51:07;;;;;;;6.45;3.30;;;2.70;99.90;;;;;;5091695;28;20056;-66
2021/11/27 00:53:33;;;;;;;6.30;3.22;;;2.70;99.90;;;;;;5090879;28;20020;-66
2021/11/27 00:55:59;;;;;;;5.22;3.00;;;2.70;99.90;;;;;;5091957;28;20028;-66
2021/11/27 00:58:25;;;;;;;4.10;2.97;;;2.80;99.90;;;;;;5094056;28;20473;-65
2021/11/27 01:00:56;;;;;;;5.75;3.38;;;2.70;99.90;;;;;;5094349;28;20027;-64
2021/11/27 01:03:25;;;;;;;4.03;2.58;;;2.70;99.90;;;;;;5093827;28;20028;-64
2021/11/27 01:05:51;;;;;;;5.18;3.42;;;2.70;99.90;;;;;;5092892;28;20082;-65
2021/11/27 01:08:17;;;;;;;6.28;3.30;;;2.70;99.90;;;;;;5093904;28;20496;-64
2021/11/27 01:10:48;;;;;;;4.55;3.35;;;2.70;99.90;;;;;;5093624;28;20032;-65
2021/11/27 01:13:14;;;;;;;6.65;3.20;;;2.70;99.90;;;;;;5093611;28;20020;-65
2021/11/27 01:15:40;;;;;;;5.50;3.15;;;2.70;99.90;;;;;;5093639;28;20027;-65
2021/11/27 01:18:07;;;;;;;5.30;3.63;;;2.70;99.90;;;;;;5092344;28;20028;-65
2021/11/27 01:20:48;;;;;;;5.97;3.33;;;2.80;99.90;;;;;;5093480;28;20020;-65
2021/11/27 01:23:15;;;;;;;7.60;3.15;;;2.80;99.90;;;;;;5093069;28;20377;-65
2021/11/27 01:25:43;;;;;;;8.38;3.55;;;2.80;99.90;;;;;;5093336;28;20526;-65
2021/11/27 01:28:09;;;;;;;4.93;3.08;;;2.80;99.90;;;;;;5092625;28;20089;-65
2021/11/27 01:30:35;;;;;;;5.65;3.30;;;2.80;99.90;;;;;;5093465;28;20024;-65
2021/11/27 01:33:01;;;;;;;4.53;3.03;;;2.80;99.90;;;;;;5092155;28;20023;-65
2021/11/27 01:35:27;;;;;;;6.35;3.60;;;2.80;99.90;;;;;;5092796;28;20073;-65
2021/11/27 01:37:52;;;;;;;4.60;3.30;;;2.90;99.90;;;;;;5092079;28;20097;-65
2021/11/27 01:40:22;;;;;;;8.13;4.15;;;2.80;99.90;;;;;;5093612;28;20038;-65
2021/11/27 01:42:50;;;;;;;8.05;4.00;;;2.80;99.90;;;;;;5092694;28;20027;-65
2021/11/27 01:45:17;;;;;;;4.90;3.42;;;2.80;99.90;;;;;;5091895;28;20051;-65
2021/11/27 01:47:53;;;;;;;5.57;3.40;;;2.80;99.90;;;;;;5092603;28;20473;-65
2021/11/27 01:50:21;;;;;;;5.70;3.58;;;2.80;99.90;;;;;;5093060;28;20032;-65
2021/11/27 01:52:53;;;;;;;6.60;4.03;;;2.80;99.90;;;;;;5092419;28;20080;-65
2021/11/27 01:55:19;;;;;;;7.30;3.83;;;2.80;99.90;;;;;;5093347;28;20534;-64
2021/11/27 01:57:45;;;;;;;6.28;4.63;;;2.90;99.90;;;;;;5092909;28;20426;-64
2021/11/27 02:00:15;;;;;;;5.88;3.50;;;2.80;99.90;;;;;;5092408;28;20032;-65
2021/11/27 02:02:41;;;;;;;8.15;3.95;;;2.80;99.90;;;;;;5093110;28;20024;-65
2021/11/27 02:05:07;;;;;;;5.05;3.45;;;2.80;99.90;;;;;;5092134;28;20036;-65
2021/11/27 02:07:33;;;;;;;6.57;3.63;;;2.80;99.90;;;;;;5092309;28;20031;-65
2021/11/27 02:09:59;;;;;;;6.70;4.15;;;2.70;99.90;;;;;;5091116;28;20471;-65
2021/11/27 02:12:25;;;;;;;6.35;3.63;;;2.80;99.90;;;;;;5092252;28;20028;-65
2021/11/27 02:14:51;;;;;;;6.20;3.70;;;2.80;99.90;;;;;;5090598;28;20034;-65
2021/11/27 02:17:17;;;;;;;7.38;3.50;;;2.80;99.90;;;;;;5092043;28;20035;-65
2021/11/27 02:19:43;;;;;;;6.53;3.53;;;2.80;99.90;;;;;;5092006;28;20030;-65
2021/11/27 02:22:10;;;;;;;8.48;3.50;;;2.80;99.90;;;;;;5090836;28;20016;-65
2021/11/27 02:24:36;;;;;;;7.93;3.70;;;2.80;99.90;;;;;;5091856;28;20016;-64
2021/11/27 02:27:02;;;;;;;5.15;3.38;;;2.80;99.90;;;;;;5091097;28;20039;-64
2021/11/27 02:29:31;;;;;;;4.40;3.20;;;2.80;99.90;;;;;;5091889;28;20028;-64
2021/11/27 02:31:58;;;;;;;5.90;3.80;;;2.90;99.90;;;;;;5091090;28;20354;-64
2021/11/27 02:34:24;;;;;;;5.53;3.58;;;2.90;99.90;;;;;;5091784;28;20419;-64
2021/11/27 02:36:55;;;;;;;7.00;3.72;;;2.90;99.90;;;;;;5090681;28;20036;-65
2021/11/27 02:39:22;;;;;;;4.65;3.10;;;2.80;99.90;;;;;;5090488;28;20051;-64
2021/11/27 02:41:54;;;;;;;6.05;3.42;;;2.80;99.90;;;;;;5091552;28;20020;-64
2021/11/27 02:44:24;;;;;;;6.43;3.83;;;2.70;99.90;;;;;;5091609;28;20472;-64
2021/11/27 02:46:52;;;;;;;7.50;3.65;;;2.80;99.90;;;;;;5091047;28;20055;-65
2021/11/27 02:49:18;;;;;;;5.10;3.70;;;2.70;99.90;;;;;;5091484;28;20054;-64
2021/11/27 02:51:45;;;;;;;8.43;3.72;;;2.80;99.90;;;;;;5091408;28;20069;-64
2021/11/27 02:54:12;;;;;;;7.32;3.80;;;2.80;99.90;;;;;;5090524;28;20024;-64
2021/11/27 02:56:38;;;;;;;5.82;3.67;;;2.70;99.90;;;;;;5091149;28;20035;-64
2021/11/27 02:59:15;;;;;;;7.22;3.53;;;2.70;99.90;;;;;;5089587;28;20035;-64
2021/11/27 03:01:43;;;;;;;6.63;3.17;;;2.70;99.90;;;;;;5091283;28;20099;-64
2021/11/27 03:04:09;;;;;;;5.05;3.42;;;2.70;99.90;;;;;;5090424;28;20020;-64
2021/11/27 03:06:36;;;;;;;7.00;3.45;;;2.60;99.90;;;;;;5091539;28;20392;-64
2021/11/27 03:09:05;;;;;;;6.00;3.65;;;2.60;99.90;;;;;;5090461;28;20028;-65
2021/11/27 03:11:31;;;;;;;6.85;3.95;;;2.60;99.90;;;;;;5091185;28;20017;-64
2021/11/27 03:13:57;;;;;;;6.60;3.28;;;2.60;99.90;;;;;;5090598;28;20028;-64
2021/11/27 03:16:28;;;;;;;6.63;3.63;;;2.60;99.90;;;;;;5091021;28;20024;-64
2021/11/27 03:18:54;;;;;;;7.40;3.72;;;2.60;99.90;;;;;;5090642;28;20024;-64
2021/11/27 03:21:20;;;;;;;5.63;3.33;;;2.50;99.90;;;;;;5091509;28;20034;-64
2021/11/27 03:23:47;;;;;;;5.50;3.67;;;2.50;99.90;;;;;;5090823;28;20024;-64
2021/11/27 03:26:13;;;;;;;6.32;3.38;;;2.50;99.90;;;;;;5092690;28;20020;-64
2021/11/27 03:28:38;;;;;;;5.13;2.95;;;2.60;99.90;;;;;;5095520;28;20043;-64
2021/11/27 03:31:04;;;;;;;5.07;3.20;;;2.60;99.90;;;;;;5094515;28;20089;-64
2021/11/27 03:33:31;;;;;;;6.72;3.20;;;2.70;99.90;;;;;;5095261;28;20046;-64
2021/11/27 03:35:57;;;;;;;4.05;2.67;;;2.70;99.90;;;;;;5094251;28;20036;-64
2021/11/27 03:38:24;;;;;;;4.72;3.28;;;2.80;99.90;;;;;;5094652;28;20534;-64
2021/11/27 03:40:56;;;;;;;5.30;3.33;;;2.90;99.90;;;;;;5094822;28;20020;-64
2021/11/27 03:43:22;;;;;;;5.65;2.90;;;3.00;99.90;;;;;;5095364;28;20415;-64
2021/11/27 03:45:48;;;;;;;6.00;2.92;;;3.00;99.90;;;;;;5095352;28;20103;-65
2021/11/27 03:48:25;;;;;;;6.05;3.47;;;2.90;99.90;;;;;;5094222;28;20122;-64
2021/11/27 03:50:59;;;;;;;6.07;3.40;;;2.90;99.90;;;;;;5095174;28;20107;-64
2021/11/27 03:53:28;;;;;;;4.90;2.80;;;2.80;99.90;;;;;;5095366;28;20031;-64
2021/11/27 03:55:54;;;;;;;5.40;3.17;;;2.70;99.90;;;;;;5094443;28;20024;-65
2021/11/27 03:58:20;;;;;;;6.22;3.88;;;2.70;99.90;;;;;;5095087;28;20036;-65
2021/11/27 04:00:47;;;;;;;6.30;3.08;;;2.60;99.90;;;;;;5094712;28;20418;-65
2021/11/27 04:03:15;;;;;;;7.28;2.90;;;2.60;99.90;;;;;;5094296;28;20153;-65
2021/11/27 04:05:44;;;;;;;4.47;2.80;;;2.50;99.90;;;;;;5094805;28;20032;-65
2021/11/27 04:08:10;;;;;;;5.13;3.28;;;2.50;99.90;;;;;;5094424;28;20031;-65
2021/11/27 04:10:36;;;;;;;4.60;3.03;;;2.40;99.90;;;;;;5094192;28;20036;-65
2021/11/27 04:13:02;;;;;;;5.45;3.28;;;2.40;99.90;;;;;;5093774;28;20028;-65
2021/11/27 04:15:28;;;;;;;4.68;2.83;;;2.40;99.90;;;;;;5094366;28;20028;-65
2021/11/27 04:17:54;;;;;;;9.23;3.85;;;2.40;99.90;;;;;;5093426;28;20039;-66
2021/11/27 04:20:20;;;;;;;7.03;3.03;;;2.40;99.90;;;;;;5094209;28;20049;-65
2021/11/27 04:22:46;;;;;;;6.70;3.20;;;2.40;99.90;;;;;;5094245;28;20036;-65
2021/11/27 04:25:13;;;;;;;6.43;3.63;;;2.40;99.90;;;;;;5093456;28;20071;-65
2021/11/27 04:27:39;;;;;;;5.95;3.10;;;2.40;99.90;;;;;;5093881;28;20027;-65
2021/11/27 04:30:11;;;;;;;3.80;2.60;;;2.40;99.90;;;;;;5093001;28;20058;-65
2021/11/27 04:32:37;;;;;;;5.68;2.55;;;2.40;99.90;;;;;;5094268;28;20039;-65
2021/11/27 04:35:03;;;;;;;4.47;2.80;;;2.50;99.90;;;;;;5092861;28;20055;-65
2021/11/27 04:37:29;;;;;;;6.88;3.10;;;2.40;99.90;;;;;;5092754;28;20079;-65
2021/11/27 04:39:56;;;;;;;4.30;2.15;;;2.40;99.90;;;;;;5093151;28;20043;-66
2021/11/27 04:42:22;;;;;;;4.70;1.95;;;2.40;99.90;;;;;;5093484;28;20045;-65
2021/11/27 04:44:48;;;;;;;3.72;2.13;;;2.40;99.90;;;;;;5093730;28;20021;-65
2021/11/27 04:47:14;;;;;;;3.60;1.60;;;2.40;99.90;;;;;;5092824;28;20204;-65
2021/11/27 04:49:40;;;;;;;2.78;1.85;;;2.40;99.90;;;;;;5093774;28;20048;-65
2021/11/27 04:52:06;;;;;;;4.10;1.77;;;2.50;99.90;;;;;;5092524;28;20021;-64
2021/11/27 04:54:32;;;;;;;2.63;1.63;;;2.50;99.90;;;;;;5093593;28;20355;-65
2021/11/27 04:56:58;;;;;;;2.20;1.38;;;2.50;99.90;;;;;;5092180;28;20051;-65
2021/11/27 04:59:24;;;;;;;5.78;2.03;;;2.50;99.90;;;;;;5093196;28;20028;-65
2021/11/27 05:01:50;;;;;;;3.20;1.33;;;2.60;99.90;;;;;;5093382;28;20034;-65
2021/11/27 05:04:17;;;;;;;3.35;1.27;;;2.60;99.90;;;;;;5092501;28;20090;-65
2021/11/27 05:06:43;;;;;;;1.65;0.85;;;2.60;99.90;;;;;;5093032;28;20039;-66
2021/11/27 05:09:09;;;;;;;2.42;1.20;;;2.60;99.90;;;;;;5092793;28;20035;-65
2021/11/27 05:11:35;;;;;;;3.22;1.42;;;2.60;99.90;;;;;;5092987;28;20036;-65
2021/11/27 05:14:00;;;;;;;2.85;1.13;;;2.50;99.90;;;;;;5092115;28;20020;-65
2021/11/27 05:16:26;;;;;;;2.58;1.25;;;2.60;99.90;;;;;;5093071;28;20024;-65
2021/11/27 05:18:53;;;;;;;1.67;0.98;;;2.60;99.90;;;;;;5093107;28;20031;-64
2021/11/27 05:21:19;;;;;;;4.68;1.08;;;2.60;99.90;;;;;;5092389;28;20046;-65
2021/11/27 05:23:45;;;;;;;2.80;1.02;;;2.70;99.90;;;;;;5092891;28;20055;-65
2021/11/27 05:26:11;;;;;;;1.75;1.10;;;2.70;99.90;;;;;;5090730;28;20475;-66
2021/11/27 05:28:37;;;;;;;1.90;1.20;;;2.70;99.90;;;;;;5092943;28;20067;-66
2021/11/27 05:31:03;;;;;;;1.33;0.88;;;2.70;99.90;;;;;;5092073;28;20059;-66
2021/11/27 05:33:46;;;;;;;2.80;0.85;;;2.70;99.90;;;;;;5092868;28;20106;-65
2021/11/27 05:36:17;;;;;;;1.13;0.90;;;2.70;99.90;;;;;;5091743;28;20024;-65
2021/11/27 05:38:48;;;;;;;2.00;1.00;;;2.70;99.90;;;;;;5092834;28;20056;-65
2021/11/27 05:41:15;;;;;;;1.92;1.10;;;2.70;99.90;;;;;;5090382;28;20089;-66
2021/11/27 05:43:42;;;;;;;0.98;0.75;;;2.70;99.90;;;;;;5092771;28;20056;-67
2021/11/27 05:46:09;;;;;;;2.15;1.00;;;2.70;99.90;;;;;;5091854;28;20447;-66
2021/11/27 05:48:35;;;;;;;0.82;0.80;;;2.70;99.90;;;;;;5091564;28;20382;-65
2021/11/27 05:51:01;;;;;;;1.50;1.00;;;2.70;99.90;;;;;;5091349;28;20028;-65
2021/11/27 05:53:27;;;;;;;1.05;0.82;;;2.70;99.90;;;;;;5092100;28;20542;-68
2021/11/27 05:55:52;;;;;;;1.95;0.70;;;2.80;99.90;;;;;;5092723;28;20114;-66
2021/11/27 05:58:20;;;;;;;1.65;0.90;;;2.70;99.90;;;;;;5091123;28;20036;-66
2021/11/27 06:00:46;;;;;;;2.42;1.08;;;2.70;99.90;;;;;;5092391;28;20074;-66
2021/11/27 06:03:12;;;;;;;1.77;0.80;;;2.70;99.90;;;;;;5091247;28;20050;-66
2021/11/27 06:05:38;;;;;;;3.92;1.42;;;2.70;99.90;;;;;;5092301;28;20145;-66
2021/11/27 06:08:05;;;;;;;2.95;1.17;;;2.80;99.90;;;;;;5091034;28;20375;-66
2021/11/27 06:10:32;;;;;;;1.55;1.20;;;2.70;99.90;;;;;;5091767;28;20035;-66
2021/11/27 06:12:59;;;;;;;2.15;1.05;;;2.80;99.90;;;;;;5091102;28;20388;-66
2021/11/27 06:15:25;;;;;;;1.35;1.00;;;2.80;99.90;;;;;;5092164;28;20066;-66
2021/11/27 06:17:51;;;;;;;1.13;0.90;;;2.80;99.90;;;;;;5091647;28;20036;-66
2021/11/27 06:20:17;;;;;;;1.38;1.02;;;2.90;99.90;;;;;;5091266;28;20031;-66
2021/11/27 06:22:43;;;;;;;2.05;1.10;;;2.90;99.90;;;;;;5091700;28;20104;-66
2021/11/27 06:25:09;;;;;;;1.58;1.42;;;2.80;99.90;;;;;;5091034;28;20038;-66
2021/11/27 06:27:35;;;;;;;2.20;1.10;;;2.90;99.90;;;;;;5091527;28;20107;-66
2021/11/27 06:30:01;;;;;;;1.30;1.00;;;2.80;99.90;;;;;;5090015;28;20073;-66
2021/11/27 06:32:26;;;;;;;2.15;1.33;;;2.80;99.90;;;;;;5090683;28;20111;-66
2021/11/27 06:34:54;;;;;;;2.35;1.25;;;2.70;99.90;;;;;;5090686;28;20419;-66
2021/11/27 06:37:21;;;;;;;2.15;1.25;;;2.80;99.90;;;;;;5089390;28;20044;-66
2021/11/27 06:39:48;;;;;;;2.92;1.77;;;2.80;99.90;;;;;;5090405;28;20054;-64
2021/11/27 06:42:14;;;;;;;2.70;1.75;;;2.70;99.90;;;;;;5087928;28;20028;-64
2021/11/27 06:44:46;;;;;;;3.25;1.40;;;2.70;99.90;;;;;;5090217;28;20019;-65
2021/11/27 06:47:15;;;;;;;2.13;1.15;;;2.70;99.90;;;;;;5088278;28;20028;-64
2021/11/27 06:49:40;;;;;;;3.20;1.25;;;2.70;99.90;;;;;;5089295;28;20074;-64
2021/11/27 06:52:06;;;;;;;2.17;1.42;;;2.70;99.90;;;;;;5088920;28;20048;-65
2021/11/27 06:54:32;;;;;;;1.63;1.25;;;2.70;99.90;;;;;;5090041;28;20021;-64
2021/11/27 06:56:59;;;;;;;5.05;1.70;;;2.70;99.90;;;;;;5089569;28;20032;-65
2021/11/27 06:59:26;;;;;;;1.67;1.13;;;2.70;99.90;;;;;;5089629;28;20052;-65
2021/11/27 07:01:52;;;;;;;1.30;1.00;;;2.70;99.90;;;;;;5095935;28;20024;-65
2021/11/27 07:04:19;;;;;;;0.90;0.77;;;2.80;99.90;;;;;;5095790;28;20578;-65
2021/11/27 07:06:46;;;;;;;1.60;1.17;;;2.80;99.90;;;;;;5096660;28;20028;-65
2021/11/27 07:09:12;;;;;;;2.55;1.08;;;2.80;99.90;;;;;;5095876;28;20028;-65
2021/11/27 07:11:38;;;;;;;1.98;1.20;;;2.90;99.90;;;;;;5096486;28;20023;-65
2021/11/27 07:14:04;;;;;;;1.75;1.23;;;2.90;99.90;;;;;;5095458;28;20035;-65
2021/11/27 07:16:29;;;;;;;3.03;1.48;;;2.90;99.90;;;;;;5096569;28;20028;-65
2021/11/27 07:18:55;;;;;;;1.73;1.20;;;3.00;99.90;;;;;;5096528;28;20020;-65
2021/11/27 07:21:21;;;;;;;1.30;0.90;;;3.10;99.90;;;;;;5094604;28;20059;-65
2021/11/27 07:23:47;;;;;;;1.85;1.33;;;3.10;99.90;;;;;;5096344;28;20046;-65
2021/11/27 07:26:13;;;;;;;1.08;0.82;;;3.10;99.90;;;;;;5095269;28;20095;-65
2021/11/27 07:28:38;;;;;;;1.80;1.05;;;3.10;99.90;;;;;;5095983;28;20119;-64
2021/11/27 07:31:04;;;;;;;2.55;0.90;;;3.10;99.90;;;;;;5095614;28;20021;-65
2021/11/27 07:33:30;;;;;;;1.52;1.17;;;3.10;99.90;;;;;;5096833;28;20032;-65
2021/11/27 07:35:58;;;;;;;1.08;0.90;;;3.10;99.90;;;;;;5096182;28;20046;-65
2021/11/27 07:38:24;;;;;;;1.25;0.90;;;3.20;99.90;;;;;;5095998;28;20044;-66
2021/11/27 07:40:50;;;;;;;1.65;1.20;;;3.20;99.90;;;;;;5096552;28;20382;-66
2021/11/27 07:43:16;;;;;;;1.25;0.82;;;3.20;99.90;;;;;;5095374;28;20020;-66
2021/11/27 07:45:41;;;;;;;2.03;0.93;;;3.20;99.90;;;;;;5095821;28;20035;-65
2021/11/27 07:48:07;;;;;;;1.50;0.98;;;3.30;99.90;;;;;;5095235;28;20401;-66
2021/11/27 07:50:34;;;;;;;1.30;1.00;;;3.30;99.90;;;;;;5096337;28;20429;-65
2021/11/27 07:53:00;;;;;;;1.73;0.90;;;3.30;99.90;;;;;;5095702;28;20032;-65
2021/11/27 07:55:28;;;;;;;3.05;1.35;;;3.40;99.90;;;;;;5096383;28;20066;-65
2021/11/27 07:57:54;;;;;;;1.25;0.80;;;3.40;99.90;;;;;;5096246;28;20491;-65
2021/11/27 08:00:20;;;;;;;1.10;0.95;;;3.40;99.90;;;;;;5095325;28;20767;-65
2021/11/27 08:02:46;;;;;;;1.40;1.00;;;3.40;99.90;;;;;;5096062;28;20028;-65
2021/11/27 08:05:12;;;;;;;0.98;0.88;;;3.40;99.90;;;;;;5095502;28;20400;-66
2021/11/27 08:07:38;;;;;;;1.77;0.93;;;3.40;99.90;;;;;;5096122;28;20035;-66
2021/11/27 08:10:09;;;;;;;1.13;0.93;;;3.40;99.90;;;;;;5095158;28;20024;-66
2021/11/27 08:12:35;;;;;;;4.82;1.98;;;3.40;99.90;;;;;;5093048;28;20496;-65
2021/11/27 08:15:01;;;;;;;58.53;8.85;;;3.40;99.90;;;;;;5091808;28;20093;-66
2021/11/27 08:17:27;;;;;;;18.85;4.53;;;3.40;99.90;;;;;;5092687;28;20489;-66
2021/11/27 08:19:53;;;;;;;26.83;9.23;;;3.40;99.90;;;;;;5092577;28;20024;-66
2021/11/27 08:22:19;;;;;;;3.20;1.75;;;3.50;99.90;;;;;;5092053;28;20105;-65
2021/11/27 08:24:44;;;;;;;1.65;0.98;;;3.60;99.90;;;;;;5092886;28;20095;-65
2021/11/27 08:27:11;;;;;;;3.78;0.95;;;3.60;99.90;;;;;;5091917;28;20103;-65
2021/11/27 08:29:36;;;;;;;1.45;1.25;;;3.60;99.90;;;;;;5093087;28;20027;-65
2021/11/27 08:32:02;;;;;;;3.35;1.83;;;3.70;99.90;;;;;;5092815;28;20035;-66
2021/11/27 08:34:28;;;;;;;3.90;1.58;;;3.80;99.90;;;;;;5093804;28;20069;-66
2021/11/27 08:36:54;;;;;;;5.10;2.00;;;3.90;99.90;;;;;;5093487;28;20036;-67
2021/11/27 08:39:19;;;;;;;3.05;1.40;;;4.00;99.90;;;;;;5093237;28;20024;-67
2021/11/27 08:41:47;;;;;;;1.75;1.15;;;4.10;99.90;;;;;;5094001;28;20019;-67
2021/11/27 08:44:13;;;;;;;3.70;1.33;;;4.10;99.90;;;;;;5092161;28;20029;-68
2021/11/27 08:46:40;;;;;;;3.75;1.20;;;4.10;99.90;;;;;;5093039;28;20030;-70
2021/11/27 08:49:05;;;;;;;2.20;1.50;;;4.20;99.90;;;;;;5092080;28;20056;-66
2021/11/27 08:51:31;;;;;;;1.90;1.48;;;4.30;99.90;;;;;;5093302;28;20430;-67
2021/11/27 08:53:59;;;;;;;1.73;1.20;;;4.30;99.90;;;;;;5093259;28;20062;-67
2021/11/27 08:56:25;;;;;;;1.38;1.00;;;4.40;99.90;;;;;;5093285;28;20024;-67
2021/11/27 08:58:51;;;;;;;1.95;1.10;;;4.40;99.90;;;;;;5092919;28;20481;-66
2021/11/27 09:01:17;;;;;;;2.95;1.10;;;4.50;99.90;;;;;;5092040;28;20060;-68
2021/11/27 09:03:43;;;;;;;2.90;1.08;;;4.60;99.90;;;;;;5093301;28;20028;-69
2021/11/27 09:06:09;;;;;;;2.97;1.10;;;4.70;99.90;;;;;;5091993;28;20032;-68
2021/11/27 09:08:38;;;;;;;2.58;1.30;;;4.90;99.90;;;;;;5092915;28;20066;-67
2021/11/27 09:11:05;;;;;;;2.63;1.00;;;4.90;99.90;;;;;;5091934;28;20484;-68
2021/11/27 09:13:31;;;;;;;2.63;1.30;;;4.90;99.90;;;;;;5092766;28;20426;-68
2021/11/27 09:15:56;;;;;;;1.60;0.88;;;5.00;99.90;;;;;;5092487;28;20078;-69
2021/11/27 09:18:22;;;;;;;4.18;1.75;;;5.10;99.90;;;;;;5091967;28;20036;-68
2021/11/27 09:20:48;;;;;;;4.72;1.60;;;5.10;99.90;;;;;;5092712;28;20031;-68
2021/11/27 09:23:14;;;;;;;2.90;1.20;;;5.20;99.90;;;;;;5091560;28;20081;-68
2021/11/27 09:25:40;;;;;;;2.03;0.98;;;5.30;99.90;;;;;;5093017;28;20103;-70
2021/11/27 09:28:06;;;;;;;3.15;1.00;;;5.40;99.90;;;;;;5092033;28;20461;-67
2021/11/27 09:30:32;;;;;;;2.92;1.10;;;5.60;99.90;;;;;;5092414;28;20020;-69
2021/11/27 09:33:05;;;;;;;3.28;1.00;;;5.50;99.90;;;;;;5092274;28;20030;-69
2021/11/27 09:35:31;;;;;;;2.05;0.98;;;5.80;99.90;;;;;;5092499;28;20031;-69
2021/11/27 09:37:57;;;;;;;2.50;0.98;;;5.80;99.90;;;;;;5092521;28;20097;-68
2021/11/27 09:40:23;;;;;;;2.13;0.82;;;5.90;99.90;;;;;;5087254;28;20040;-68
2021/11/27 09:42:54;;;;;;;1.88;0.85;;;5.90;99.90;;;;;;5092107;28;20024;-68
2021/11/27 09:45:26;;;;;;;;;;;6.00;99.90;;;;;;5091945;28;20096;-68
2021/11/27 09:47:54;;;;;;;1.33;0.68;;;6.00;99.90;;;;;;5091791;28;19904;-67
2021/11/27 09:50:21;;;;;;;3.00;0.95;;;6.00;99.90;;;;;;5090867;28;20567;-68
2021/11/27 09:52:47;;;;;;;1.98;0.63;;;5.90;99.90;;;;;;5092122;28;20032;-67
2021/11/27 09:55:17;;;;;;;3.38;0.70;;;5.70;99.90;;;;;;5091144;28;20054;-68
2021/11/27 09:57:45;;;;;;;1.48;0.50;;;5.50;99.90;;;;;;5090949;28;20330;-68
2021/11/27 10:00:11;;;;;;;1.13;0.55;;;5.40;99.90;;;;;;5090885;28;20024;-67
2021/11/27 10:02:40;;;;;;;1.98;0.60;;;5.20;99.90;;;;;;5091817;28;20056;-68
2021/11/27 10:05:08;;;;;;;1.17;0.50;;;5.10;99.90;;;;;;5091621;28;20024;-67
2021/11/27 10:07:35;;;;;;;1.10;0.50;;;5.10;99.90;;;;;;5092004;28;20032;-67
2021/11/27 10:10:11;;;;;;;1.85;0.73;;;5.10;99.90;;;;;;5091336;28;20031;-67
2021/11/27 10:12:40;;;;;;;2.47;0.98;;;5.20;99.90;;;;;;5091844;28;20028;-67
2021/11/27 10:15:06;;;;;;;3.50;0.55;;;5.30;99.90;;;;;;5091375;28;20043;-66
2021/11/27 10:17:32;;;;;;;2.33;0.90;;;5.50;99.90;;;;;;5092022;28;20036;-66
2021/11/27 10:20:00;;;;;;;3.35;0.85;;;5.60;99.90;;;;;;5092007;28;20039;-66
2021/11/27 10:22:39;;;;;;;2.53;0.90;;;5.80;99.90;;;;;;5091769;28;20024;-67
2021/11/27 10:25:27;;;;;;;2.47;1.00;;;5.90;99.90;;;;;;5091298;28;20028;-69
2021/11/27 10:28:00;;;;;;;1.60;0.57;;;6.10;99.90;;;;;;5092285;28;20024;-70
2021/11/27 10:30:26;;;;;;;1.52;0.77;;;6.20;99.90;;;;;;5091852;28;20031;-70
2021/11/27 10:32:52;;;;;;;2.72;0.60;;;6.30;99.90;;;;;;5091765;28;20473;-72
2021/11/27 10:35:22;;;;;;;1.60;0.95;;;6.40;99.90;;;;;;5090503;28;20380;-66
2021/11/27 10:37:53;;;;;;;2.50;1.10;;;6.40;99.90;;;;;;5091593;28;20393;-74
2021/11/27 10:40:18;;;;;;;3.30;1.42;;;6.40;99.90;;;;;;5090946;28;20101;-67
2021/11/27 10:42:56;;;;;;;1.75;0.90;;;6.40;99.90;;;;;;5091692;28;20469;-68
2021/11/27 10:45:28;;;;;;;3.70;0.85;;;6.30;99.90;;;;;;5090935;28;20112;-67
2021/11/27 10:48:09;;;;;;;2.13;0.80;;;6.20;99.90;;;;;;5091439;28;20086;-68
2021/11/27 10:50:43;;;;;;;8.52;1.35;;;6.10;99.90;;;;;;5090705;28;20027;-67
2021/11/27 10:53:15;;;;;;;2.17;0.77;;;6.00;99.90;;;;;;5091073;28;20036;-73
2021/11/27 10:55:41;;;;;;;2.15;0.63;;;6.00;99.90;;;;;;5091664;28;20054;-68
2021/11/27 10:58:09;;;;;;;2.47;0.88;;;6.10;99.90;;;;;;5090479;28;20516;-68
2021/11/27 11:00:57;;;;;;;5.07;0.98;;;6.10;99.90;;;;;;5091500;28;20530;-73
2021/11/27 11:03:37;;;;;;;4.93;1.35;;;6.10;99.90;;;;;;5090424;28;20016;-67
2021/11/27 11:06:26;;;;;;;4.57;1.17;;;6.00;99.90;;;;;;5091247;28;20461;-69
2021/11/27 11:08:53;;;;;;;3.95;0.90;;;5.90;99.90;;;;;;5091657;28;20035;-66
2021/11/27 11:11:24;;;;;;;0.70;0.55;;;6.00;99.90;;;;;;5090581;28;20024;-68
2021/11/27 11:13:55;;;;;;;2.72;0.90;;;6.10;99.90;;;;;;5091488;28;20063;-68
2021/11/27 11:16:30;;;;;;;2.67;1.45;;;6.10;99.90;;;;;;5090707;28;20031;-69
2021/11/27 11:19:15;;;;;;;2.88;1.35;;;6.10;99.90;;;;;;5090875;28;20063;-69
2021/11/27 11:22:05;;;;;;;2.58;0.85;;;6.10;99.90;;;;;;5091293;28;20062;-68
2021/11/27 11:24:31;;;;;;;;;;;6.10;99.90;;;;;;5092026;28;20030;-68
2021/11/27 11:27:00;;;;;;;3.60;1.02;;;6.10;99.90;;;;;;5091250;28;20360;-68
2021/11/27 11:29:46;;;;;;;2.38;0.90;;;6.10;99.90;;;;;;5090829;28;20091;-68
2021/11/27 11:32:27;;;;;;;3.28;1.00;;;6.00;99.90;;;;;;5087560;28;20107;-68
2021/11/27 11:34:54;;;;;;;2.97;1.10;;;6.00;99.90;;;;;;5091179;28;20027;-68
2021/11/27 11:37:21;;;;;;;9.80;1.52;;;6.00;99.90;;;;;;5090379;28;20032;-68
2021/11/27 11:39:48;;;;;;;1.58;0.77;;;6.00;99.90;;;;;;5090819;28;20040;-68
2021/11/27 11:42:15;;;;;;;1.48;0.70;;;6.00;99.90;;;;;;5090374;28;20424;-68
2021/11/27 11:44:42;;;;;;;2.30;0.70;;;6.00;99.90;;;;;;5090971;28;20085;-68
2021/11/27 11:47:10;;;;;;;2.97;1.35;;;6.00;99.90;;;;;;5090982;28;20122;-69
2021/11/27 11:49:40;;;;;;;1.90;1.27;;;6.00;99.90;;;;;;5095057;28;20358;-68
2021/11/27 11:52:23;;;;;;;;;;;6.10;99.90;;;;;;5095423;28;20024;-68
2021/11/27 11:54:50;;;;;;;1.90;1.08;;;6.10;99.90;;;;;;5093774;28;19961;-69
2021/11/27 11:57:16;;;;;;;1.70;0.73;;;6.10;99.90;;;;;;5094171;28;20036;-68
2021/11/27 11:59:42;;;;;;;1.60;0.90;;;6.30;99.90;;;;;;5094658;28;20028;-68
2021/11/27 12:02:16;;;;;;;3.30;1.17;;;6.50;99.90;;;;;;5093965;28;20031;-68
2021/11/27 12:04:57;;;;;;;3.28;0.98;;;6.60;99.90;;;;;;5094577;28;20028;-68
2021/11/27 12:07:44;;;;;;;5.40;1.20;;;6.60;99.90;;;;;;5093873;28;20477;-68
2021/11/27 12:10:13;;;;;;;2.45;0.95;;;6.60;99.90;;;;;;5093998;28;20028;-68
2021/11/27 12:12:39;;;;;;;3.70;1.10;;;6.40;99.90;;;;;;5093653;28;20104;-68
2021/11/27 12:15:12;;;;;;;3.50;0.90;;;6.40;99.90;;;;;;5093069;28;20046;-68
2021/11/27 12:18:06;;;;;;;2.63;0.95;;;6.40;99.90;;;;;;5094265;28;20119;-68
2021/11/27 12:20:50;;;;;;;2.92;1.10;;;6.20;99.90;;;;;;5094025;28;20028;-68
2021/11/27 12:23:38;;;;;;;2.95;1.70;;;6.10;99.90;;;;;;5093682;28;20142;-68
2021/11/27 12:26:18;;;;;;;2.28;1.00;;;6.20;99.90;;;;;;5094406;28;20020;-68
2021/11/27 12:28:49;;;;;;;2.63;1.50;;;6.10;99.90;;;;;;5094538;28;20066;-68
2021/11/27 12:31:22;;;;;;;2.20;1.05;;;6.00;99.90;;;;;;5093354;28;20130;-68
2021/11/27 12:33:58;;;;;;;1.75;1.20;;;6.10;99.90;;;;;;5094412;28;20020;-67
2021/11/27 12:36:35;;;;;;;4.85;0.93;;;6.00;99.90;;;;;;5092960;28;20031;-67
2021/11/27 12:39:20;;;;;;;1.40;0.93;;;6.00;99.90;;;;;;5094034;28;20036;-67
2021/11/27 12:42:12;;;;;;;2.75;1.02;;;5.90;99.90;;;;;;5093577;28;20028;-67
2021/11/27 12:44:52;;;;;;;2.65;1.10;;;5.90;99.90;;;;;;5093112;28;20035;-67
2021/11/27 12:47:23;;;;;;;2.35;0.88;;;5.90;99.90;;;;;;5092303;28;20024;-67
2021/11/27 12:49:53;;;;;;;2.50;0.90;;;6.00;99.90;;;;;;5094609;28;20130;-67
2021/11/27 12:52:20;;;;;;;3.95;1.02;;;6.20;99.90;;;;;;5091862;28;20447;-66
2021/11/27 12:55:12;;;;;;;1.30;0.77;;;6.40;99.90;;;;;;5092674;28;20039;-67
2021/11/27 12:57:40;;;;;;;2.55;0.47;;;6.50;99.90;;;;;;5069012;28;20052;-68
2021/11/27 13:00:27;;;;;;;1.25;0.60;;;6.50;99.90;;;;;;5074357;28;20042;-68
2021/11/27 13:03:02;;;;;;;2.05;0.95;;;6.40;99.90;;;;;;5093604;28;20028;-67
2021/11/27 13:05:34;;;;;;;1.23;0.68;;;6.30;99.90;;;;;;5092434;28;20020;-66